Time;durP1;ratioP1;P1;durP2;ratioP2;P2;SDS_P1;SDS_P2;PMS_P1;PMS_P2;Temp;Humidity;BMP_temperature;BMP_pressure;BME280_temperature;BME280_humidity;BME280_pressure;Samples;Min_cycle;Max_cycle;Signal;HPM_P1;HPM_P2
2022/03/21 00:02:21;;;;;;;22.43;10.33;;;8.50;51.30;;;;;;5070762;28;20638;-74
2022/03/21 00:04:47;;;;;;;17.60;12.17;;;8.50;51.60;;;;;;5070567;28;20252;-73
2022/03/21 00:07:13;;;;;;;17.67;11.27;;;8.50;51.90;;;;;;5070470;28;20422;-74
2022/03/21 00:09:39;;;;;;;15.90;10.00;;;8.40;51.70;;;;;;5070169;28;20456;-73
2022/03/21 00:12:05;;;;;;;14.80;10.27;;;8.40;50.90;;;;;;5070170;28;20207;-75
2022/03/21 00:14:30;;;;;;;14.40;10.70;;;8.40;51.20;;;;;;5070302;28;20179;-74
2022/03/21 00:16:57;;;;;;;16.27;9.90;;;8.20;51.30;;;;;;5070201;28;20623;-74
2022/03/21 00:19:23;;;;;;;14.00;10.70;;;8.10;51.90;;;;;;5070151;28;20202;-74
2022/03/21 00:21:48;;;;;;;17.30;10.33;;;8.10;51.70;;;;;;5070261;28;20446;-74
2022/03/21 00:24:14;;;;;;;15.80;11.10;;;8.10;51.40;;;;;;5070234;28;20179;-73
2022/03/21 00:26:40;;;;;;;14.10;10.30;;;8.00;51.30;;;;;;5070167;28;20234;-74
2022/03/21 00:29:06;;;;;;;16.10;10.50;;;8.30;51.10;;;;;;5068939;28;20214;-74
2022/03/21 00:31:31;;;;;;;11.63;9.90;;;8.20;51.00;;;;;;5070362;28;20188;-73
2022/03/21 00:33:57;;;;;;;20.33;10.23;;;8.20;51.50;;;;;;5070384;28;20187;-73
2022/03/21 00:36:23;;;;;;;14.87;10.17;;;8.10;51.70;;;;;;5070183;28;20199;-74
2022/03/21 00:38:48;;;;;;;18.57;10.97;;;8.10;52.10;;;;;;5070243;28;20210;-74
2022/03/21 00:41:14;;;;;;;16.20;10.10;;;8.10;52.90;;;;;;5070174;28;20643;-74
2022/03/21 00:43:39;;;;;;;16.70;11.20;;;8.00;52.80;;;;;;5068681;28;20214;-73
2022/03/21 00:46:05;;;;;;;13.90;9.60;;;8.00;53.00;;;;;;5069843;28;20834;-73
2022/03/21 00:48:31;;;;;;;17.23;10.73;;;7.80;53.30;;;;;;5069837;28;20204;-74
2022/03/21 00:50:58;;;;;;;14.77;10.60;;;7.70;54.00;;;;;;5069779;28;20187;-74
2022/03/21 00:53:24;;;;;;;15.63;9.93;;;7.70;54.00;;;;;;5069165;28;20187;-74
2022/03/21 00:55:52;;;;;;;14.30;9.97;;;7.50;55.50;;;;;;5069466;28;20417;-74
2022/03/21 00:58:18;;;;;;;17.43;10.97;;;7.40;56.90;;;;;;5069249;28;20465;-73
2022/03/21 01:00:45;;;;;;;26.60;15.83;;;7.40;55.40;;;;;;5069312;28;20421;-73
2022/03/21 01:03:11;;;;;;;16.30;11.90;;;7.50;54.70;;;;;;5069204;28;20428;-74
2022/03/21 01:05:36;;;;;;;16.77;10.10;;;7.50;54.80;;;;;;5069321;28;20512;-74
2022/03/21 01:08:03;;;;;;;17.17;10.83;;;7.50;55.30;;;;;;5067578;28;20509;-73
2022/03/21 01:10:31;;;;;;;17.07;11.03;;;7.40;56.60;;;;;;5068861;28;20210;-74
2022/03/21 01:12:56;;;;;;;16.17;10.70;;;7.20;58.40;;;;;;5069030;28;20424;-74
2022/03/21 01:15:24;;;;;;;13.23;10.40;;;7.20;58.10;;;;;;5069041;28;20430;-74
2022/03/21 01:17:51;;;;;;;16.47;10.27;;;7.10;58.10;;;;;;5068754;28;20223;-74
2022/03/21 01:20:19;;;;;;;12.43;9.67;;;7.10;59.60;;;;;;5067411;28;20446;-74
2022/03/21 01:22:45;;;;;;;13.40;10.40;;;7.10;60.30;;;;;;5069027;28;20418;-75
2022/03/21 01:25:12;;;;;;;17.17;10.93;;;6.90;59.60;;;;;;5068939;28;20428;-74
2022/03/21 01:27:39;;;;;;;14.50;9.10;;;6.90;59.40;;;;;;5068898;28;20433;-73
2022/03/21 01:30:06;;;;;;;18.70;11.17;;;6.90;58.40;;;;;;5068740;28;20922;-72
2022/03/21 01:32:34;;;;;;;13.90;9.87;;;6.90;58.20;;;;;;5068741;28;20482;-75
2022/03/21 01:35:00;;;;;;;16.93;9.73;;;6.80;58.60;;;;;;5067337;28;20437;-74
2022/03/21 01:37:26;;;;;;;15.33;10.47;;;6.70;59.10;;;;;;5068684;28;20469;-74
2022/03/21 01:39:52;;;;;;;16.73;10.10;;;6.70;60.00;;;;;;5068491;28;20441;-74
2022/03/21 01:42:18;;;;;;;11.43;9.50;;;6.70;60.80;;;;;;5068672;28;20413;-73
2022/03/21 01:44:43;;;;;;;16.30;10.33;;;6.60;62.90;;;;;;5068627;28;20703;-74
2022/03/21 01:47:09;;;;;;;15.60;9.37;;;6.40;63.50;;;;;;5067166;28;20325;-74
2022/03/21 01:49:35;;;;;;;13.13;9.93;;;6.40;63.80;;;;;;5068430;28;20243;-74
2022/03/21 01:52:01;;;;;;;16.77;10.83;;;6.30;65.40;;;;;;5068574;28;20731;-74
2022/03/21 01:57:11;;;;;;;11.97;9.00;;;6.30;65.50;;;;;;5067502;28;21041;-74
2022/03/21 01:59:37;;;;;;;12.93;9.70;;;6.30;66.40;;;;;;5068684;28;20520;-73
2022/03/21 02:02:05;;;;;;;17.40;10.40;;;6.30;65.50;;;;;;5068582;28;20467;-73
2022/03/21 02:04:31;;;;;;;13.37;10.00;;;6.20;65.70;;;;;;5070025;28;20717;-74
2022/03/21 02:06:57;;;;;;;16.93;9.33;;;6.10;66.70;;;;;;5072871;28;20421;-74
2022/03/21 02:09:23;;;;;;;14.30;9.53;;;6.00;67.10;;;;;;5072688;28;20441;-73
2022/03/21 02:11:49;;;;;;;15.30;10.60;;;6.00;68.80;;;;;;5071990;28;20207;-74
2022/03/21 02:14:14;;;;;;;14.73;9.97;;;5.90;69.20;;;;;;5071499;28;20195;-74
2022/03/21 02:16:40;;;;;;;17.00;10.00;;;5.90;69.20;;;;;;5071344;28;20823;-74
2022/03/21 02:19:15;;;;;;;19.47;10.00;;;5.90;69.40;;;;;;5069682;28;20231;-74
2022/03/21 02:22:12;;;;;;;14.00;9.10;;;5.60;71.60;;;;;;5069895;28;20529;-73
2022/03/21 02:24:46;;;;;;;19.50;10.40;;;5.40;73.50;;;;;;5070777;28;20869;-74
2022/03/21 02:27:14;;;;;;;16.90;10.93;;;5.30;76.40;;;;;;5071040;28;20421;-74
2022/03/21 02:29:40;;;;;;;14.17;9.50;;;5.10;78.90;;;;;;5070694;28;20437;-73
2022/03/21 02:32:07;;;;;;;15.10;10.07;;;5.00;78.90;;;;;;5070462;28;20425;-73
2022/03/21 02:34:37;;;;;;;17.83;10.63;;;5.00;77.90;;;;;;5069284;28;20487;-73
2022/03/21 02:37:05;;;;;;;15.90;10.27;;;5.10;77.50;;;;;;5070467;28;20488;-73
2022/03/21 02:39:30;;;;;;;14.70;9.60;;;5.10;78.50;;;;;;5070331;28;20433;-74
2022/03/21 02:41:56;;;;;;;14.77;10.80;;;5.10;78.90;;;;;;5070313;28;20844;-73
2022/03/21 02:44:23;;;;;;;14.50;9.97;;;4.90;79.80;;;;;;5070237;28;20213;-74
2022/03/21 02:46:49;;;;;;;15.30;10.30;;;4.80;80.80;;;;;;5070213;28;20427;-73
2022/03/21 02:49:15;;;;;;;15.63;10.40;;;4.60;82.40;;;;;;5070131;28;20452;-73
2022/03/21 02:51:43;;;;;;;15.83;10.73;;;4.70;83.80;;;;;;5070195;28;20463;-73
2022/03/21 02:54:09;;;;;;;14.80;10.13;;;4.60;82.30;;;;;;5070120;28;20932;-74
2022/03/21 02:56:35;;;;;;;16.77;10.70;;;4.60;82.10;;;;;;5070015;28;20460;-74
2022/03/21 02:59:01;;;;;;;15.23;10.80;;;4.60;81.90;;;;;;5069927;28;20548;-74
2022/03/21 03:01:27;;;;;;;15.07;9.93;;;4.60;82.60;;;;;;5069901;28;20413;-74
2022/03/21 03:03:53;;;;;;;15.97;10.50;;;4.50;82.60;;;;;;5068346;28;20212;-74
2022/03/21 03:06:19;;;;;;;16.27;9.60;;;4.50;82.40;;;;;;5069912;28;20429;-74
2022/03/21 03:08:44;;;;;;;17.70;10.90;;;4.60;83.00;;;;;;5069928;28;20535;-74
2022/03/21 03:11:11;;;;;;;13.33;9.70;;;4.70;83.70;;;;;;5032125;28;1085750;-74
2022/03/21 03:13:37;;;;;;;15.90;10.20;;;4.70;82.40;;;;;;5069480;28;20420;-74
2022/03/21 03:16:04;;;;;;;15.90;10.63;;;4.70;84.00;;;;;;5070358;28;20435;-74
2022/03/21 03:18:30;;;;;;;14.80;10.30;;;4.60;85.40;;;;;;5070611;28;20471;-74
2022/03/21 03:20:57;;;;;;;14.27;10.10;;;4.50;86.70;;;;;;5070922;28;20474;-74
2022/03/21 03:23:25;;;;;;;19.80;11.20;;;4.50;87.40;;;;;;5070761;28;20429;-73
2022/03/21 03:25:58;;;;;;;16.80;11.37;;;4.40;88.30;;;;;;5070751;28;20925;-74
2022/03/21 03:28:23;;;;;;;18.63;11.50;;;4.30;89.50;;;;;;5070655;28;20493;-74
2022/03/21 03:30:50;;;;;;;17.00;11.53;;;4.30;89.70;;;;;;5070560;28;20476;-74
2022/03/21 03:33:16;;;;;;;17.20;10.23;;;4.20;90.30;;;;;;5069160;28;20662;-74
2022/03/21 03:35:41;;;;;;;15.37;10.30;;;4.30;90.50;;;;;;5070578;28;20433;-74
2022/03/21 03:38:08;;;;;;;17.43;11.53;;;4.20;90.70;;;;;;5070692;28;20928;-74
2022/03/21 03:40:33;;;;;;;20.33;12.07;;;4.10;90.80;;;;;;5070368;28;20772;-74
2022/03/21 03:42:59;;;;;;;14.67;9.90;;;4.00;91.40;;;;;;5070345;28;20183;-74
2022/03/21 03:45:25;;;;;;;16.83;11.03;;;4.00;91.60;;;;;;5070344;28;20210;-74
2022/03/21 03:47:52;;;;;;;13.93;10.40;;;4.00;91.50;;;;;;5069236;28;20312;-74
2022/03/21 03:50:18;;;;;;;15.68;9.70;;;4.00;91.20;;;;;;5070200;28;20889;-73
2022/03/21 03:52:46;;;;;;;18.53;11.30;;;4.00;91.40;;;;;;5070439;28;20187;-73
2022/03/21 03:55:17;;;;;;;16.63;10.70;;;4.10;91.90;;;;;;5070073;28;20427;-73
2022/03/21 03:57:46;;;;;;;15.10;9.63;;;3.90;92.10;;;;;;5070028;28;20465;-74
2022/03/21 04:00:14;;;;;;;16.42;11.57;;;4.00;92.70;;;;;;5069985;28;20464;-74
2022/03/21 04:05:41;;;;;;;14.57;10.30;;;3.80;92.60;;;;;;5047181;28;20431;-73
2022/03/21 04:08:07;;;;;;;15.73;10.70;;;3.70;92.40;;;;;;5064848;28;20935;-74
2022/03/21 04:10:33;;;;;;;14.80;10.20;;;3.70;92.70;;;;;;5069546;28;20206;-74
2022/03/21 04:12:59;;;;;;;16.90;10.23;;;3.70;92.50;;;;;;5069776;28;20474;-73
2022/03/21 04:15:24;;;;;;;15.60;10.33;;;3.90;92.70;;;;;;5069722;28;20426;-73
2022/03/21 04:17:50;;;;;;;20.80;11.40;;;3.90;92.20;;;;;;5069611;28;20274;-73
2022/03/21 04:20:16;;;;;;;16.47;10.80;;;3.90;92.20;;;;;;5069460;28;20204;-73
2022/03/21 04:22:42;;;;;;;15.23;10.60;;;3.90;92.60;;;;;;5068296;28;20186;-74
2022/03/21 04:25:13;;;;;;;16.47;10.80;;;3.90;93.10;;;;;;5069539;28;20482;-75
2022/03/21 04:27:39;;;;;;;15.10;11.23;;;3.80;92.80;;;;;;5068751;28;20431;-75
2022/03/21 04:30:06;;;;;;;18.43;11.10;;;3.60;93.30;;;;;;5070041;28;20439;-75
2022/03/21 04:32:32;;;;;;;19.90;10.47;;;3.50;93.80;;;;;;5069696;28;20195;-75
2022/03/21 04:34:58;;;;;;;22.33;11.82;;;3.30;94.50;;;;;;5067906;28;20433;-75
2022/03/21 04:37:24;;;;;;;14.77;10.87;;;3.20;95.20;;;;;;5069202;28;20206;-75
2022/03/21 04:39:49;;;;;;;20.73;11.67;;;3.20;95.40;;;;;;5067805;28;20206;-74
2022/03/21 04:42:16;;;;;;;21.13;11.03;;;3.00;95.40;;;;;;5069341;28;20239;-74
2022/03/21 04:44:44;;;;;;;19.83;10.50;;;3.00;95.90;;;;;;5069326;28;20190;-75
2022/03/21 04:47:10;;;;;;;14.23;9.55;;;3.10;95.60;;;;;;5069000;28;20490;-73
2022/03/21 04:49:36;;;;;;;15.20;9.53;;;3.10;95.60;;;;;;5069090;28;20557;-75
2022/03/21 04:52:01;;;;;;;18.57;10.63;;;3.10;96.00;;;;;;5067656;28;20436;-75
2022/03/21 04:54:28;;;;;;;25.03;12.60;;;3.10;96.00;;;;;;5069154;28;20215;-75
2022/03/21 04:56:54;;;;;;;20.75;11.57;;;3.10;95.60;;;;;;5067381;28;20218;-74
2022/03/21 04:59:20;;;;;;;16.20;9.95;;;3.20;95.20;;;;;;5068862;28;20234;-75
2022/03/21 05:01:45;;;;;;;19.83;11.70;;;3.10;95.20;;;;;;5069129;28;20208;-74
2022/03/21 05:04:11;;;;;;;15.17;9.97;;;3.10;95.30;;;;;;5067517;28;20274;-74
2022/03/21 05:06:37;;;;;;;18.80;11.37;;;3.10;95.30;;;;;;5068779;28;20294;-74
2022/03/21 05:09:03;;;;;;;19.40;9.77;;;3.10;95.00;;;;;;5068557;28;20660;-74
2022/03/21 05:11:29;;;;;;;15.55;10.40;;;3.20;94.10;;;;;;5068549;28;20222;-74
2022/03/21 05:13:56;;;;;;;17.33;10.50;;;3.30;94.00;;;;;;5067124;28;20192;-74
2022/03/21 05:16:22;;;;;;;17.23;12.10;;;3.50;93.30;;;;;;5067702;28;20183;-74
2022/03/21 05:18:49;;;;;;;18.98;14.13;;;3.60;92.90;;;;;;5066039;28;20449;-74
2022/03/21 05:21:16;;;;;;;24.13;17.52;;;3.70;92.90;;;;;;5067825;28;20195;-74
2022/03/21 05:31:54;;;;;;;13.48;9.70;;;3.60;92.80;;;;;;5068192;28;20184;-74
2022/03/21 05:37:05;;;;;;;16.10;9.60;;;3.80;91.70;;;;;;5067821;28;20217;-74
2022/03/21 05:39:30;;;;;;;14.90;10.65;;;3.90;91.90;;;;;;5066349;28;20439;-74
2022/03/21 05:41:56;;;;;;;15.20;9.97;;;3.90;91.70;;;;;;5067810;28;20184;-74
2022/03/21 05:44:24;;;;;;;16.33;9.37;;;3.90;91.00;;;;;;5068104;28;20194;-74
2022/03/21 05:46:49;;;;;;;17.73;10.57;;;4.00;90.50;;;;;;5067801;28;20183;-74
2022/03/21 05:49:15;;;;;;;21.13;10.10;;;4.00;90.40;;;;;;5067750;28;20437;-74
2022/03/21 05:51:41;;;;;;;13.40;9.73;;;4.10;90.50;;;;;;5067789;28;20191;-74
2022/03/21 05:54:09;;;;;;;14.77;9.60;;;4.10;90.60;;;;;;5067500;28;20179;-74
2022/03/21 05:56:35;;;;;;;30.23;9.93;;;4.10;90.10;;;;;;5067616;28;20182;-74
2022/03/21 06:01:50;;;;;;;15.75;9.52;;;4.30;87.20;;;;;;5067794;28;20227;-74
2022/03/21 06:04:17;;;;;;;22.42;10.38;;;4.50;85.00;;;;;;5066000;28;20207;-74
2022/03/21 06:06:43;;;;;;;15.35;9.20;;;4.70;83.60;;;;;;5067524;28;20201;-74
2022/03/21 06:09:09;;;;;;;14.17;8.50;;;4.80;83.00;;;;;;5067471;28;20214;-74
2022/03/21 06:11:36;;;;;;;19.33;9.50;;;4.90;83.20;;;;;;5067216;28;20451;-74
2022/03/21 06:14:05;;;;;;;14.13;9.20;;;5.00;82.50;;;;;;5066880;28;20421;-74
2022/03/21 06:16:35;;;;;;;14.67;10.07;;;5.20;81.40;;;;;;5067093;28;20507;-74
2022/03/21 06:19:00;;;;;;;21.97;9.20;;;5.50;80.20;;;;;;5067997;28;20971;-74
2022/03/21 06:21:30;;;;;;;16.03;10.50;;;5.90;78.40;;;;;;5066980;28;20412;-74
2022/03/21 06:23:56;;;;;;;13.57;10.00;;;6.10;76.70;;;;;;5065244;28;20208;-74
2022/03/21 06:26:22;;;;;;;18.77;10.30;;;6.30;75.10;;;;;;5066502;28;20414;-75
2022/03/21 06:28:48;;;;;;;18.70;10.93;;;6.40;75.80;;;;;;5064889;28;20499;-75
2022/03/21 06:31:14;;;;;;;14.70;10.00;;;6.60;77.60;;;;;;5066416;28;20640;-75
2022/03/21 06:33:40;;;;;;;11.93;9.30;;;6.90;75.10;;;;;;5066381;28;20278;-75
2022/03/21 06:36:07;;;;;;;21.63;10.73;;;7.20;72.70;;;;;;5064693;28;21004;-74
2022/03/21 06:38:33;;;;;;;19.83;11.87;;;7.60;75.10;;;;;;5066171;28;20494;-74
2022/03/21 06:40:59;;;;;;;16.73;11.40;;;7.50;76.20;;;;;;5064794;28;20457;-75
2022/03/21 06:43:26;;;;;;;18.00;12.03;;;7.70;76.50;;;;;;5066462;28;20419;-74
2022/03/21 06:45:52;;;;;;;20.03;12.17;;;7.90;76.50;;;;;;5066519;28;20495;-74
2022/03/21 06:48:20;;;;;;;17.33;11.40;;;7.80;76.20;;;;;;5064723;28;20420;-75
2022/03/21 06:50:46;;;;;;;26.53;12.97;;;7.80;77.40;;;;;;5049481;28;20421;-76
2022/03/21 06:53:13;;;;;;;18.80;12.03;;;7.70;77.70;;;;;;5070164;28;20941;-75
2022/03/21 06:55:39;;;;;;;23.43;13.70;;;7.70;79.10;;;;;;5069978;28;20507;-75
2022/03/21 06:58:06;;;;;;;17.97;12.67;;;7.40;78.10;;;;;;5070032;28;20999;-75
2022/03/21 07:00:32;;;;;;;17.97;12.60;;;7.40;81.00;;;;;;5069649;28;20441;-73
2022/03/21 07:02:58;;;;;;;20.27;12.87;;;7.30;81.20;;;;;;5070310;28;20420;-75
2022/03/21 07:05:26;;;;;;;19.40;13.40;;;7.50;81.90;;;;;;5068536;28;20557;-75
2022/03/21 07:07:52;;;;;;;20.03;12.57;;;7.60;80.60;;;;;;5068456;28;20195;-76
2022/03/21 07:10:18;;;;;;;22.33;14.90;;;7.50;80.90;;;;;;5069509;28;21008;-76
2022/03/21 07:12:43;;;;;;;18.80;12.80;;;7.50;82.00;;;;;;5051277;28;20590;-76
2022/03/21 07:15:09;;;;;;;20.40;13.80;;;7.60;82.80;;;;;;5069647;28;20184;-76
2022/03/21 07:17:35;;;;;;;20.33;13.60;;;7.80;83.00;;;;;;5069583;28;20231;-76
2022/03/21 07:20:01;;;;;;;19.40;13.20;;;8.00;82.30;;;;;;5068322;28;20201;-76
2022/03/21 07:22:26;;;;;;;23.07;14.73;;;8.30;82.80;;;;;;5069731;28;20177;-76
2022/03/21 07:24:52;;;;;;;22.90;14.60;;;8.50;82.10;;;;;;5069273;28;20175;-76
2022/03/21 07:27:19;;;;;;;18.40;12.97;;;8.60;81.30;;;;;;5069699;28;20179;-76
2022/03/21 07:29:44;;;;;;;23.43;14.47;;;9.00;79.40;;;;;;5067879;28;20551;-76
2022/03/21 07:32:10;;;;;;;19.33;14.30;;;9.10;79.20;;;;;;5069335;28;20909;-76
2022/03/21 07:34:36;;;;;;;23.20;14.37;;;9.30;79.00;;;;;;5050798;28;20271;-76
2022/03/21 07:37:01;;;;;;;25.70;15.43;;;9.40;77.00;;;;;;5050780;28;20805;-76
2022/03/21 07:39:29;;;;;;;20.17;15.07;;;9.40;77.10;;;;;;5068995;28;20236;-76
2022/03/21 07:42:00;;;;;;;20.63;15.43;;;9.50;78.60;;;;;;5069032;28;20208;-76
2022/03/21 07:47:22;;;;;;;20.47;15.00;;;9.40;75.40;;;;;;5069195;28;20432;-76
2022/03/21 07:49:52;;;;;;;20.13;13.30;;;9.50;76.40;;;;;;5067839;28;20811;-76
2022/03/21 07:52:20;;;;;;;24.10;14.53;;;9.60;76.20;;;;;;5067567;28;20425;-76
2022/03/21 07:54:52;;;;;;;19.23;13.07;;;9.80;76.40;;;;;;5069198;28;20418;-76
2022/03/21 07:57:19;;;;;;;21.20;14.83;;;9.70;75.50;;;;;;5067208;28;20527;-76
2022/03/21 07:59:45;;;;;;;23.77;14.27;;;9.80;74.00;;;;;;5068897;28;20520;-76
2022/03/21 08:02:10;;;;;;;22.60;13.43;;;10.00;71.30;;;;;;5067455;28;20876;-76
2022/03/21 08:04:37;;;;;;;21.00;13.10;;;10.00;69.50;;;;;;5067171;28;20446;-76
2022/03/21 08:07:03;;;;;;;18.50;12.60;;;10.20;68.40;;;;;;5068482;28;20186;-76
2022/03/21 08:09:29;;;;;;;20.00;13.20;;;10.40;69.30;;;;;;5066757;28;20962;-76
2022/03/21 08:11:57;;;;;;;17.37;12.20;;;10.60;65.80;;;;;;5068351;28;20449;-76
2022/03/21 08:14:23;;;;;;;18.47;13.00;;;10.90;64.50;;;;;;5066744;28;20195;-76
2022/03/21 08:16:50;;;;;;;17.40;12.53;;;11.10;64.60;;;;;;5066606;28;20479;-76
2022/03/21 08:19:16;;;;;;;20.60;13.13;;;11.30;65.60;;;;;;5068058;28;20468;-76
2022/03/21 08:21:42;;;;;;;18.20;13.20;;;11.30;65.40;;;;;;5066665;28;20800;-76
2022/03/21 08:24:08;;;;;;;18.90;12.40;;;11.40;64.10;;;;;;5067964;28;20429;-76
2022/03/21 08:26:35;;;;;;;21.13;13.07;;;11.60;63.20;;;;;;5066562;28;20429;-76
2022/03/21 08:29:01;;;;;;;21.23;14.23;;;11.90;61.70;;;;;;5068539;28;20199;-77
2022/03/21 08:31:26;;;;;;;19.97;13.20;;;12.10;61.00;;;;;;5068382;28;20442;-76
2022/03/21 08:33:52;;;;;;;16.00;12.03;;;12.10;62.00;;;;;;5066660;28;20499;-76
2022/03/21 08:36:18;;;;;;;21.67;13.70;;;12.40;61.10;;;;;;5066545;28;20411;-76
2022/03/21 08:38:43;;;;;;;17.80;13.00;;;12.60;61.90;;;;;;5067940;28;20221;-76
2022/03/21 08:41:09;;;;;;;19.80;14.50;;;12.50;62.90;;;;;;5066871;28;20182;-76
2022/03/21 08:43:35;;;;;;;21.73;15.07;;;12.50;63.70;;;;;;5068653;28;20192;-76
2022/03/21 08:46:01;;;;;;;18.50;14.57;;;12.80;64.10;;;;;;5066309;28;20177;-76
2022/03/21 08:51:25;;;;;;;28.33;15.10;;;13.50;63.20;;;;;;5054997;28;20192;-77
2022/03/21 08:53:51;;;;;;;19.23;14.40;;;13.60;61.30;;;;;;5067612;28;20788;-76
2022/03/21 08:56:18;;;;;;;19.17;14.17;;;13.70;61.00;;;;;;5049581;28;20285;-77
2022/03/21 08:58:43;;;;;;;17.87;14.27;;;14.10;61.50;;;;;;5066051;28;20898;-77
2022/03/21 09:01:09;;;;;;;22.77;15.47;;;14.60;59.70;;;;;;5067667;28;20413;-77
2022/03/21 09:03:35;;;;;;;17.53;13.80;;;14.60;56.70;;;;;;5067810;28;20211;-77
2022/03/21 09:06:00;;;;;;;19.23;13.93;;;14.80;59.00;;;;;;5068024;28;20209;-77
2022/03/21 09:08:26;;;;;;;18.77;13.70;;;15.20;58.00;;;;;;5068014;28;20190;-77
2022/03/21 09:10:52;;;;;;;20.77;14.53;;;15.70;56.70;;;;;;5068290;28;20569;-77
2022/03/21 09:13:18;;;;;;;19.57;13.23;;;15.70;54.70;;;;;;5066910;28;20541;-77
2022/03/21 09:15:44;;;;;;;24.90;13.40;;;16.20;55.50;;;;;;5067638;28;20428;-77
2022/03/21 09:18:10;;;;;;;21.23;13.80;;;16.30;52.60;;;;;;5068734;28;20760;-77
2022/03/21 09:20:37;;;;;;;20.43;14.07;;;16.70;51.60;;;;;;5068640;28;20439;-77
2022/03/21 09:23:04;;;;;;;20.67;13.90;;;16.70;52.40;;;;;;5068920;28;20837;-77
2022/03/21 09:25:30;;;;;;;20.17;14.40;;;17.00;50.70;;;;;;5069453;28;20473;-77
2022/03/21 09:27:55;;;;;;;19.13;13.40;;;17.00;50.50;;;;;;5069301;28;20458;-77
2022/03/21 09:30:21;;;;;;;23.70;15.47;;;17.50;50.00;;;;;;5069187;28;20202;-77
2022/03/21 09:32:47;;;;;;;30.30;16.33;;;17.50;48.80;;;;;;5067315;28;20183;-77
2022/03/21 09:35:13;;;;;;;22.50;15.90;;;17.20;48.80;;;;;;5067163;28;20187;-78
2022/03/21 09:37:39;;;;;;;18.77;14.67;;;16.40;48.00;;;;;;5067221;28;20399;-77
2022/03/21 09:40:06;;;;;;;20.77;13.90;;;16.50;49.10;;;;;;5068658;28;20905;-77
2022/03/21 09:42:33;;;;;;;19.67;14.70;;;16.30;50.70;;;;;;5067303;28;20426;-77
2022/03/21 09:44:59;;;;;;;25.13;14.50;;;16.80;50.90;;;;;;5068841;28;20833;-77
2022/03/21 09:50:12;;;;;;;17.20;14.30;;;17.00;49.70;;;;;;5068587;28;21029;-77
2022/03/21 09:52:38;;;;;;;19.33;15.03;;;17.20;47.50;;;;;;5067918;28;20458;-77
2022/03/21 09:55:09;;;;;;;21.40;15.10;;;17.20;48.60;;;;;;5067762;28;20464;-77
2022/03/21 09:57:36;;;;;;;24.20;16.33;;;17.50;49.40;;;;;;5067735;28;20461;-77
2022/03/21 10:00:04;;;;;;;19.10;14.07;;;17.90;48.30;;;;;;5068485;28;20439;-77
2022/03/21 10:02:29;;;;;;;23.83;14.80;;;17.90;46.90;;;;;;5067313;28;20522;-77
2022/03/21 10:04:55;;;;;;;20.13;15.30;;;18.20;47.40;;;;;;5069965;28;20991;-78
2022/03/21 10:07:27;;;;;;;25.33;15.10;;;18.00;46.30;;;;;;5067957;28;20197;-77
2022/03/21 10:10:08;;;;;;;21.57;14.70;;;18.50;46.80;;;;;;5067173;28;20207;-77
2022/03/21 10:12:34;;;;;;;17.47;14.80;;;18.40;46.70;;;;;;5068078;28;20961;-77
2022/03/21 10:15:00;;;;;;;22.50;14.63;;;18.50;45.90;;;;;;5068614;28;20462;-77
2022/03/21 10:17:25;;;;;;;24.03;14.13;;;18.60;45.90;;;;;;5068455;28;20490;-77
2022/03/21 10:19:52;;;;;;;19.07;14.67;;;19.10;46.20;;;;;;5068388;28;20565;-77
2022/03/21 10:22:34;;;;;;;23.10;14.17;;;19.20;46.20;;;;;;5050807;28;20183;-77
2022/03/21 10:25:08;;;;;;;17.07;14.17;;;19.20;44.10;;;;;;5069746;28;20396;-77
2022/03/21 10:27:39;;;;;;;29.23;15.30;;;19.40;43.10;;;;;;5073310;28;20470;-77
2022/03/21 10:30:15;;;;;;;17.77;15.10;;;19.90;44.00;;;;;;5073074;28;20446;-77
2022/03/21 10:32:46;;;;;;;18.10;15.30;;;20.00;42.40;;;;;;5072865;28;20412;-77
2022/03/21 10:35:15;;;;;;;22.13;14.50;;;19.90;43.00;;;;;;5071578;28;20446;-77
2022/03/21 10:38:02;;;;;;;21.07;14.67;;;19.80;42.30;;;;;;5072324;28;20459;-77
2022/03/21 10:40:41;;;;;;;20.63;14.87;;;19.60;42.70;;;;;;5072447;28;20441;-77
2022/03/21 10:43:13;;;;;;;20.90;14.93;;;19.00;42.10;;;;;;5070626;28;20802;-77
2022/03/21 10:45:42;;;;;;;21.20;15.30;;;18.80;43.60;;;;;;5071685;28;20933;-77
2022/03/21 10:48:16;;;;;;;25.70;16.10;;;18.40;43.50;;;;;;5071753;28;20419;-77
2022/03/21 10:50:45;;;;;;;20.17;14.43;;;18.40;44.50;;;;;;5071656;28;20422;-77
2022/03/21 10:53:15;;;;;;;22.30;15.03;;;18.50;44.80;;;;;;5053397;28;20504;-77
2022/03/21 10:55:44;;;;;;;22.63;14.57;;;18.60;44.20;;;;;;5071821;28;20949;-77
2022/03/21 10:58:10;;;;;;;23.93;15.20;;;18.80;44.40;;;;;;5071665;28;20908;-77
2022/03/21 11:00:36;;;;;;;22.07;14.80;;;19.00;44.40;;;;;;5072668;28;20435;-77
2022/03/21 11:03:05;;;;;;;22.03;15.87;;;19.20;44.40;;;;;;5071369;28;20416;-77
2022/03/21 11:05:42;;;;;;;24.80;15.40;;;19.20;43.60;;;;;;5071102;28;20182;-77
2022/03/21 11:08:09;;;;;;;23.00;16.83;;;19.20;44.10;;;;;;5054772;28;20439;-78
2022/03/21 11:10:35;;;;;;;20.10;15.50;;;19.30;43.50;;;;;;5072358;28;20945;-77
2022/03/21 11:13:03;;;;;;;19.67;15.00;;;19.70;43.80;;;;;;5073176;28;20429;-78
2022/03/21 11:15:31;;;;;;;19.50;14.80;;;19.90;43.90;;;;;;5071702;28;20436;-78
2022/03/21 11:17:57;;;;;;;19.77;15.50;;;20.20;43.00;;;;;;5069039;28;20607;-77
2022/03/21 11:20:24;;;;;;;20.70;15.57;;;20.20;42.70;;;;;;5052470;28;20976;-77
2022/03/21 11:22:52;;;;;;;19.60;14.23;;;20.60;41.60;;;;;;5070966;28;20903;-78
2022/03/21 11:25:18;;;;;;;22.10;16.03;;;20.70;42.20;;;;;;5070531;28;21044;-78
2022/03/21 11:28:14;;;;;;;19.73;14.53;;;20.80;42.30;;;;;;5069199;28;20938;-78
2022/03/21 11:31:06;;;;;;;25.37;16.10;;;20.90;41.90;;;;;;5069223;28;20478;-77
2022/03/21 11:33:51;;;;;;;20.80;16.17;;;21.20;41.40;;;;;;5072253;28;20910;-79
2022/03/21 11:36:17;;;;;;;20.37;15.60;;;21.30;40.00;;;;;;5071207;28;20478;-78
2022/03/21 11:38:46;;;;;;;18.60;14.07;;;21.40;41.30;;;;;;5071041;28;20479;-78
2022/03/21 11:41:26;;;;;;;18.60;15.17;;;21.50;41.70;;;;;;5071362;28;21051;-78
2022/03/21 11:44:04;;;;;;;25.13;16.50;;;21.60;40.30;;;;;;5071777;28;20928;-79
2022/03/21 11:46:31;;;;;;;20.97;16.20;;;21.60;39.40;;;;;;5071267;28;20510;-78
2022/03/21 11:48:59;;;;;;;25.23;16.00;;;21.30;40.50;;;;;;5071757;28;20451;-78
2022/03/21 11:51:39;;;;;;;21.40;15.70;;;21.30;39.60;;;;;;5071464;28;20445;-79
2022/03/21 11:54:07;;;;;;;22.60;15.80;;;21.30;38.30;;;;;;5070645;28;20495;-78
2022/03/21 11:56:43;;;;;;;24.83;17.00;;;21.20;39.70;;;;;;5071291;28;20471;-79
2022/03/21 11:59:29;;;;;;;29.23;15.70;;;21.40;38.80;;;;;;5071198;28;20446;-78
2022/03/21 12:01:55;;;;;;;21.10;15.00;;;21.30;37.40;;;;;;5069168;28;20428;-79
2022/03/21 12:04:23;;;;;;;17.43;14.47;;;21.00;36.50;;;;;;5068082;28;20420;-78
2022/03/21 12:06:50;;;;;;;18.10;14.37;;;20.90;38.20;;;;;;5069779;28;20675;-78
2022/03/21 12:09:16;;;;;;;26.10;16.37;;;21.00;38.30;;;;;;5069877;28;20500;-79
2022/03/21 12:11:42;;;;;;;22.13;15.20;;;20.90;38.20;;;;;;5068151;28;21286;-78
2022/03/21 12:14:29;;;;;;;21.63;14.57;;;20.90;38.10;;;;;;5068578;28;20449;-78
2022/03/21 12:17:00;;;;;;;26.77;13.63;;;21.10;39.30;;;;;;5069038;28;20428;-79
2022/03/21 12:19:47;;;;;;;23.43;13.80;;;20.70;37.50;;;;;;5071174;28;20438;-79
2022/03/21 12:22:34;;;;;;;22.90;14.67;;;20.60;36.70;;;;;;5071999;28;20444;-79
2022/03/21 12:25:13;;;;;;;20.33;13.40;;;20.50;37.40;;;;;;5069646;28;20423;-78
2022/03/21 12:28:00;;;;;;;23.87;14.63;;;20.30;37.90;;;;;;5069456;28;20421;-78
2022/03/21 12:30:32;;;;;;;24.03;14.50;;;20.30;37.50;;;;;;5054041;28;20484;-78
2022/03/21 12:33:14;;;;;;;27.13;14.23;;;20.40;37.00;;;;;;5070947;28;20439;-78
2022/03/21 12:35:45;;;;;;;23.63;13.07;;;20.40;38.30;;;;;;5070495;28;20431;-78
2022/03/21 12:38:20;;;;;;;34.67;13.77;;;20.20;37.00;;;;;;5070074;28;20555;-78
2022/03/21 12:40:50;;;;;;;22.10;12.50;;;19.90;36.90;;;;;;5070601;28;21590;-78
2022/03/21 12:43:22;;;;;;;27.20;12.33;;;20.00;37.10;;;;;;5069522;28;20419;-77
2022/03/21 12:45:50;;;;;;;21.43;12.63;;;19.70;35.10;;;;;;5069442;28;20769;-75
2022/03/21 12:48:17;;;;;;;16.30;11.77;;;19.50;35.70;;;;;;5050227;28;20474;-78
2022/03/21 12:50:49;;;;;;;23.53;13.60;;;19.50;35.70;;;;;;5068240;28;20424;-78
2022/03/21 12:53:18;;;;;;;18.87;12.07;;;19.40;37.20;;;;;;5069976;28;20938;-79
2022/03/21 12:55:46;;;;;;;18.50;12.37;;;19.30;36.40;;;;;;5069356;28;20432;-78
2022/03/21 12:58:14;;;;;;;18.23;12.47;;;19.30;37.40;;;;;;5067226;28;20483;-78
2022/03/21 13:00:41;;;;;;;21.43;12.40;;;19.20;37.20;;;;;;5068677;28;20421;-78
2022/03/21 13:03:14;;;;;;;18.60;12.10;;;19.20;37.20;;;;;;5068249;28;20913;-78
2022/03/21 13:11:34;;;;;;;20.37;11.93;;;19.60;37.20;;;;;;5069177;28;20468;-78